Saltar para o conteúdo principal

Santa Maria / Maia (DROTRH)

ID 11217165 · 36.9412, -25.0176 mapa

Última leitura · 2026-05-09 19:00 (Europe/Lisbon)

Temperatura
12.4 °C
Humidade
90 %
Pressão
Precipitação
Radiação
Velocidade do vento
Direcção do vento
Sem vento

Histórico de 24 horas

Hora (Europe/Lisbon) Temperatura Humidade Pressão Chuva Vento Direcção
2026-05-09 19:00 12.4 °C 90 %
2026-05-09 18:00 12.9 °C 86 % 1.6 mm 18.0 km/h NW
2026-05-09 17:00 14.1 °C 74 % 0.4 mm 19.8 km/h NW
2026-05-09 16:00 14.6 °C 66 % 0.1 mm 15.5 km/h W
2026-05-09 15:00 15.5 °C 58 % 0.0 mm 15.1 km/h W
2026-05-09 14:00 16.0 °C 58 % 0.0 mm 11.2 km/h SW
2026-05-09 13:00 14.0 °C 69 % 0.1 mm 11.2 km/h W
2026-05-09 12:00 15.5 °C 59 % 0.0 mm 10.4 km/h SW
2026-05-09 11:00 13.7 °C 67 % 0.0 mm 12.2 km/h S
2026-05-09 10:00 11.9 °C 69 % 0.0 mm 19.1 km/h SE
2026-05-09 09:00 12.1 °C 73 % 0.0 mm 19.1 km/h S
2026-05-09 08:00 11.9 °C 72 % 0.0 mm 16.2 km/h NE
2026-05-09 07:00 12.0 °C 73 % 0.0 mm 20.9 km/h W
2026-05-09 06:00 12.2 °C 70 % 0.0 mm 21.2 km/h E
2026-05-09 05:00 12.6 °C 68 % 0.1 mm 22.0 km/h S
2026-05-09 04:00 12.7 °C 77 % 0.0 mm 26.6 km/h SE
2026-05-09 03:00 12.9 °C 78 % 0.0 mm 19.4 km/h W
2026-05-09 02:00 13.0 °C 77 % 0.0 mm 25.6 km/h S
2026-05-09 01:00 12.9 °C 86 % 0.0 mm 16.9 km/h S
2026-05-09 00:00 12.8 °C 87 % 0.4 mm 16.9 km/h NW
2026-05-08 23:00 13.6 °C 81 % 0.0 mm 15.5 km/h W
2026-05-08 22:00 13.9 °C 79 % 0.0 mm 15.5 km/h NW
2026-05-08 21:00 14.2 °C 77 % 0.0 mm 23.0 km/h NW
2026-05-08 20:00 15.5 °C 75 % 0.0 mm 18.7 km/h W